sensor_id;sensor_type;location;lat;lon;timestamp;P1;durP1;ratioP1;P2;durP2;ratioP2
10463;SDS011;5279;42.048;24.638;2023-07-13T00:00:46;4.70;;;4.30;;
10463;SDS011;5279;42.048;24.638;2023-07-13T00:03:12;6.13;;;4.90;;
10463;SDS011;5279;42.048;24.638;2023-07-13T00:05:39;4.87;;;4.37;;
10463;SDS011;5279;42.048;24.638;2023-07-13T00:08:07;5.63;;;4.17;;
10463;SDS011;5279;42.048;24.638;2023-07-13T00:10:38;7.07;;;4.30;;
10463;SDS011;5279;42.048;24.638;2023-07-13T00:13:07;5.43;;;4.90;;
10463;SDS011;5279;42.048;24.638;2023-07-13T00:15:34;4.93;;;4.30;;
10463;SDS011;5279;42.048;24.638;2023-07-13T00:18:03;4.80;;;4.30;;
10463;SDS011;5279;42.048;24.638;2023-07-13T00:20:29;5.10;;;3.87;;
10463;SDS011;5279;42.048;24.638;2023-07-13T00:22:58;9.07;;;4.90;;
10463;SDS011;5279;42.048;24.638;2023-07-13T00:25:25;5.63;;;4.53;;
10463;SDS011;5279;42.048;24.638;2023-07-13T00:27:53;4.43;;;4.03;;
10463;SDS011;5279;42.048;24.638;2023-07-13T00:30:20;6.17;;;4.30;;
10463;SDS011;5279;42.048;24.638;2023-07-13T00:32:47;7.70;;;4.37;;
10463;SDS011;5279;42.048;24.638;2023-07-13T00:35:16;4.73;;;4.30;;
10463;SDS011;5279;42.048;24.638;2023-07-13T00:37:44;4.73;;;4.27;;
10463;SDS011;5279;42.048;24.638;2023-07-13T00:40:11;6.13;;;3.90;;
10463;SDS011;5279;42.048;24.638;2023-07-13T00:42:40;8.03;;;4.53;;
10463;SDS011;5279;42.048;24.638;2023-07-13T00:48:13;5.37;;;4.43;;
10463;SDS011;5279;42.048;24.638;2023-07-13T00:50:44;6.63;;;4.43;;
10463;SDS011;5279;42.048;24.638;2023-07-13T00:53:15;4.63;;;4.23;;
10463;SDS011;5279;42.048;24.638;2023-07-13T00:55:42;6.27;;;4.40;;
10463;SDS011;5279;42.048;24.638;2023-07-13T00:58:09;6.80;;;4.47;;
10463;SDS011;5279;42.048;24.638;2023-07-13T01:00:36;5.03;;;4.47;;
10463;SDS011;5279;42.048;24.638;2023-07-13T01:06:28;4.83;;;4.20;;
10463;SDS011;5279;42.048;24.638;2023-07-13T01:08:55;5.30;;;4.00;;
10463;SDS011;5279;42.048;24.638;2023-07-13T01:11:24;4.60;;;4.20;;
10463;SDS011;5279;42.048;24.638;2023-07-13T01:13:51;5.23;;;4.70;;
10463;SDS011;5279;42.048;24.638;2023-07-13T01:16:20;4.97;;;4.03;;
10463;SDS011;5279;42.048;24.638;2023-07-13T01:18:51;5.53;;;4.13;;
10463;SDS011;5279;42.048;24.638;2023-07-13T01:21:19;5.93;;;4.23;;
10463;SDS011;5279;42.048;24.638;2023-07-13T01:23:46;4.20;;;3.80;;
10463;SDS011;5279;42.048;24.638;2023-07-13T01:26:13;6.27;;;4.00;;
10463;SDS011;5279;42.048;24.638;2023-07-13T01:28:40;4.70;;;4.20;;
10463;SDS011;5279;42.048;24.638;2023-07-13T01:31:07;5.83;;;4.03;;
10463;SDS011;5279;42.048;24.638;2023-07-13T01:33:36;4.47;;;4.00;;
10463;SDS011;5279;42.048;24.638;2023-07-13T01:36:03;4.37;;;3.97;;
10463;SDS011;5279;42.048;24.638;2023-07-13T01:38:32;3.93;;;3.40;;
10463;SDS011;5279;42.048;24.638;2023-07-13T01:40:59;4.80;;;3.70;;
10463;SDS011;5279;42.048;24.638;2023-07-13T01:43:27;4.83;;;4.00;;
10463;SDS011;5279;42.048;24.638;2023-07-13T01:45:54;4.50;;;4.10;;
10463;SDS011;5279;42.048;24.638;2023-07-13T01:48:21;7.97;;;4.10;;
10463;SDS011;5279;42.048;24.638;2023-07-13T01:50:47;5.17;;;4.33;;
10463;SDS011;5279;42.048;24.638;2023-07-13T01:53:15;7.23;;;4.00;;
10463;SDS011;5279;42.048;24.638;2023-07-13T01:55:43;5.67;;;3.80;;
10463;SDS011;5279;42.048;24.638;2023-07-13T01:58:10;4.27;;;3.87;;
10463;SDS011;5279;42.048;24.638;2023-07-13T02:00:37;5.20;;;4.30;;
10463;SDS011;5279;42.048;24.638;2023-07-13T02:03:04;9.63;;;4.77;;
10463;SDS011;5279;42.048;24.638;2023-07-13T02:05:31;4.50;;;4.10;;
10463;SDS011;5279;42.048;24.638;2023-07-13T02:07:58;4.13;;;3.77;;
10463;SDS011;5279;42.048;24.638;2023-07-13T02:10:25;4.63;;;3.63;;
10463;SDS011;5279;42.048;24.638;2023-07-13T02:12:55;6.57;;;3.73;;
10463;SDS011;5279;42.048;24.638;2023-07-13T02:15:21;4.70;;;4.03;;
10463;SDS011;5279;42.048;24.638;2023-07-13T02:17:48;4.37;;;3.73;;
10463;SDS011;5279;42.048;24.638;2023-07-13T02:20:15;4.10;;;3.70;;
10463;SDS011;5279;42.048;24.638;2023-07-13T02:22:42;3.80;;;3.50;;
10463;SDS011;5279;42.048;24.638;2023-07-13T02:25:09;6.23;;;4.10;;
10463;SDS011;5279;42.048;24.638;2023-07-13T02:27:36;4.80;;;3.70;;
10463;SDS011;5279;42.048;24.638;2023-07-13T02:30:06;5.37;;;4.10;;
10463;SDS011;5279;42.048;24.638;2023-07-13T02:32:33;8.27;;;4.33;;
10463;SDS011;5279;42.048;24.638;2023-07-13T02:35:00;6.03;;;4.60;;
10463;SDS011;5279;42.048;24.638;2023-07-13T02:37:28;5.80;;;4.30;;
10463;SDS011;5279;42.048;24.638;2023-07-13T02:39:56;5.43;;;3.87;;
10463;SDS011;5279;42.048;24.638;2023-07-13T02:42:23;5.00;;;3.97;;
10463;SDS011;5279;42.048;24.638;2023-07-13T02:44:50;5.67;;;3.63;;
10463;SDS011;5279;42.048;24.638;2023-07-13T02:47:19;4.57;;;4.10;;
10463;SDS011;5279;42.048;24.638;2023-07-13T02:49:46;4.30;;;3.90;;
10463;SDS011;5279;42.048;24.638;2023-07-13T02:52:13;7.07;;;3.60;;
10463;SDS011;5279;42.048;24.638;2023-07-13T02:54:40;5.37;;;4.07;;
10463;SDS011;5279;42.048;24.638;2023-07-13T03:00:29;4.53;;;3.80;;
10463;SDS011;5279;42.048;24.638;2023-07-13T03:02:57;4.13;;;3.73;;
10463;SDS011;5279;42.048;24.638;2023-07-13T03:05:25;6.07;;;4.37;;
10463;SDS011;5279;42.048;24.638;2023-07-13T03:07:52;4.17;;;3.77;;
10463;SDS011;5279;42.048;24.638;2023-07-13T03:10:19;5.77;;;4.50;;
10463;SDS011;5279;42.048;24.638;2023-07-13T03:12:46;6.20;;;4.00;;
10463;SDS011;5279;42.048;24.638;2023-07-13T03:15:12;4.47;;;4.07;;
10463;SDS011;5279;42.048;24.638;2023-07-13T03:17:39;6.33;;;4.27;;
10463;SDS011;5279;42.048;24.638;2023-07-13T03:20:08;5.50;;;4.30;;
10463;SDS011;5279;42.048;24.638;2023-07-13T03:22:36;4.23;;;3.83;;
10463;SDS011;5279;42.048;24.638;2023-07-13T03:25:03;5.17;;;3.87;;
10463;SDS011;5279;42.048;24.638;2023-07-13T03:27:30;4.43;;;3.70;;
10463;SDS011;5279;42.048;24.638;2023-07-13T03:29:57;5.20;;;3.77;;
10463;SDS011;5279;42.048;24.638;2023-07-13T03:32:24;4.33;;;3.93;;
10463;SDS011;5279;42.048;24.638;2023-07-13T03:34:51;4.50;;;3.70;;
10463;SDS011;5279;42.048;24.638;2023-07-13T03:37:19;5.50;;;4.23;;
10463;SDS011;5279;42.048;24.638;2023-07-13T03:39:52;5.40;;;4.03;;
10463;SDS011;5279;42.048;24.638;2023-07-13T03:42:19;4.27;;;3.87;;
10463;SDS011;5279;42.048;24.638;2023-07-13T03:44:46;7.57;;;4.40;;
10463;SDS011;5279;42.048;24.638;2023-07-13T03:47:17;4.63;;;3.90;;
10463;SDS011;5279;42.048;24.638;2023-07-13T03:49:44;4.47;;;4.00;;
10463;SDS011;5279;42.048;24.638;2023-07-13T03:52:11;5.30;;;4.23;;
10463;SDS011;5279;42.048;24.638;2023-07-13T03:54:39;4.80;;;4.17;;
10463;SDS011;5279;42.048;24.638;2023-07-13T03:57:08;6.30;;;3.97;;
10463;SDS011;5279;42.048;24.638;2023-07-13T03:59:36;4.47;;;3.80;;
10463;SDS011;5279;42.048;24.638;2023-07-13T04:02:03;5.10;;;4.53;;
10463;SDS011;5279;42.048;24.638;2023-07-13T04:04:30;5.13;;;3.83;;
10463;SDS011;5279;42.048;24.638;2023-07-13T04:06:57;4.47;;;4.03;;
10463;SDS011;5279;42.048;24.638;2023-07-13T04:09:24;5.80;;;4.07;;
10463;SDS011;5279;42.048;24.638;2023-07-13T04:11:53;6.87;;;3.53;;
10463;SDS011;5279;42.048;24.638;2023-07-13T04:14:20;5.70;;;3.70;;
10463;SDS011;5279;42.048;24.638;2023-07-13T04:16:47;5.50;;;3.80;;
10463;SDS011;5279;42.048;24.638;2023-07-13T04:19:13;3.80;;;3.50;;
10463;SDS011;5279;42.048;24.638;2023-07-13T04:21:40;4.07;;;3.50;;
10463;SDS011;5279;42.048;24.638;2023-07-13T04:24:07;5.53;;;3.60;;
10463;SDS011;5279;42.048;24.638;2023-07-13T04:26:34;5.40;;;3.80;;
10463;SDS011;5279;42.048;24.638;2023-07-13T04:29:05;4.83;;;3.83;;
10463;SDS011;5279;42.048;24.638;2023-07-13T04:31:32;6.17;;;4.03;;
10463;SDS011;5279;42.048;24.638;2023-07-13T04:33:59;4.20;;;3.90;;
10463;SDS011;5279;42.048;24.638;2023-07-13T04:36:26;5.23;;;3.63;;
10463;SDS011;5279;42.048;24.638;2023-07-13T04:38:53;7.70;;;5.40;;
10463;SDS011;5279;42.048;24.638;2023-07-13T04:41:21;6.97;;;4.73;;
10463;SDS011;5279;42.048;24.638;2023-07-13T04:43:48;5.47;;;4.67;;
10463;SDS011;5279;42.048;24.638;2023-07-13T04:46:16;5.53;;;4.50;;
10463;SDS011;5279;42.048;24.638;2023-07-13T04:48:44;8.23;;;4.97;;
10463;SDS011;5279;42.048;24.638;2023-07-13T04:51:11;7.03;;;5.20;;
10463;SDS011;5279;42.048;24.638;2023-07-13T04:53:38;8.37;;;5.40;;
10463;SDS011;5279;42.048;24.638;2023-07-13T04:56:05;6.97;;;4.90;;
10463;SDS011;5279;42.048;24.638;2023-07-13T04:58:32;7.00;;;5.83;;
10463;SDS011;5279;42.048;24.638;2023-07-13T05:01:00;6.20;;;5.33;;
10463;SDS011;5279;42.048;24.638;2023-07-13T05:03:29;6.80;;;5.53;;
10463;SDS011;5279;42.048;24.638;2023-07-13T05:05:57;5.27;;;4.77;;
10463;SDS011;5279;42.048;24.638;2023-07-13T05:08:25;6.87;;;5.40;;
10463;SDS011;5279;42.048;24.638;2023-07-13T05:10:52;6.30;;;5.70;;
10463;SDS011;5279;42.048;24.638;2023-07-13T05:13:19;7.73;;;6.63;;
10463;SDS011;5279;42.048;24.638;2023-07-13T05:15:47;6.43;;;5.80;;
10463;SDS011;5279;42.048;24.638;2023-07-13T05:18:21;8.20;;;5.73;;
10463;SDS011;5279;42.048;24.638;2023-07-13T05:20:56;6.87;;;6.17;;
10463;SDS011;5279;42.048;24.638;2023-07-13T05:23:27;7.23;;;6.27;;
10463;SDS011;5279;42.048;24.638;2023-07-13T05:25:54;8.43;;;6.60;;
10463;SDS011;5279;42.048;24.638;2023-07-13T05:28:21;9.70;;;6.67;;
10463;SDS011;5279;42.048;24.638;2023-07-13T05:30:48;7.67;;;6.33;;
10463;SDS011;5279;42.048;24.638;2023-07-13T05:33:16;7.33;;;6.37;;
10463;SDS011;5279;42.048;24.638;2023-07-13T05:35:43;7.60;;;6.73;;
10463;SDS011;5279;42.048;24.638;2023-07-13T05:38:11;9.20;;;7.00;;
10463;SDS011;5279;42.048;24.638;2023-07-13T05:40:38;7.97;;;7.17;;
10463;SDS011;5279;42.048;24.638;2023-07-13T05:43:05;8.47;;;6.60;;
10463;SDS011;5279;42.048;24.638;2023-07-13T05:45:32;8.80;;;6.57;;
10463;SDS011;5279;42.048;24.638;2023-07-13T05:47:59;7.57;;;6.47;;
10463;SDS011;5279;42.048;24.638;2023-07-13T05:50:25;8.82;;;6.93;;
10463;SDS011;5279;42.048;24.638;2023-07-13T05:52:52;10.02;;;7.18;;
10463;SDS011;5279;42.048;24.638;2023-07-13T05:55:21;7.85;;;6.75;;
10463;SDS011;5279;42.048;24.638;2023-07-13T05:57:48;11.47;;;7.40;;
10463;SDS011;5279;42.048;24.638;2023-07-13T06:00:16;7.63;;;6.10;;
10463;SDS011;5279;42.048;24.638;2023-07-13T06:02:43;10.40;;;7.30;;
10463;SDS011;5279;42.048;24.638;2023-07-13T06:05:10;9.02;;;6.63;;
10463;SDS011;5279;42.048;24.638;2023-07-13T06:07:37;7.85;;;6.55;;
10463;SDS011;5279;42.048;24.638;2023-07-13T06:10:04;8.18;;;6.70;;
10463;SDS011;5279;42.048;24.638;2023-07-13T06:12:33;8.25;;;7.07;;
10463;SDS011;5279;42.048;24.638;2023-07-13T06:15:00;7.53;;;6.65;;
10463;SDS011;5279;42.048;24.638;2023-07-13T06:17:28;8.60;;;7.13;;
10463;SDS011;5279;42.048;24.638;2023-07-13T06:19:55;8.10;;;6.32;;
10463;SDS011;5279;42.048;24.638;2023-07-13T06:22:21;6.82;;;6.20;;
10463;SDS011;5279;42.048;24.638;2023-07-13T06:24:48;8.88;;;6.78;;
10463;SDS011;5279;42.048;24.638;2023-07-13T06:27:15;7.03;;;6.32;;
10463;SDS011;5279;42.048;24.638;2023-07-13T06:29:43;7.55;;;6.72;;
10463;SDS011;5279;42.048;24.638;2023-07-13T06:32:11;9.70;;;6.38;;
10463;SDS011;5279;42.048;24.638;2023-07-13T06:34:38;8.80;;;6.53;;
10463;SDS011;5279;42.048;24.638;2023-07-13T06:37:05;7.15;;;6.47;;
10463;SDS011;5279;42.048;24.638;2023-07-13T06:39:32;7.55;;;6.78;;
10463;SDS011;5279;42.048;24.638;2023-07-13T06:41:59;7.22;;;6.53;;
10463;SDS011;5279;42.048;24.638;2023-07-13T06:44:26;7.05;;;6.30;;
10463;SDS011;5279;42.048;24.638;2023-07-13T06:46:54;7.38;;;6.68;;
10463;SDS011;5279;42.048;24.638;2023-07-13T06:49:21;10.88;;;6.55;;
10463;SDS011;5279;42.048;24.638;2023-07-13T06:51:48;9.57;;;7.25;;
10463;SDS011;5279;42.048;24.638;2023-07-13T06:54:14;8.15;;;6.75;;
10463;SDS011;5279;42.048;24.638;2023-07-13T06:56:41;9.75;;;6.57;;
10463;SDS011;5279;42.048;24.638;2023-07-13T06:59:08;6.65;;;6.00;;
10463;SDS011;5279;42.048;24.638;2023-07-13T07:01:35;7.40;;;6.75;;
10463;SDS011;5279;42.048;24.638;2023-07-13T07:04:04;7.60;;;6.72;;
10463;SDS011;5279;42.048;24.638;2023-07-13T07:06:31;7.97;;;6.22;;
10463;SDS011;5279;42.048;24.638;2023-07-13T07:08:58;6.68;;;6.10;;
10463;SDS011;5279;42.048;24.638;2023-07-13T07:11:25;6.57;;;5.88;;
10463;SDS011;5279;42.048;24.638;2023-07-13T07:13:53;9.98;;;6.65;;
10463;SDS011;5279;42.048;24.638;2023-07-13T07:16:20;6.97;;;6.22;;
10463;SDS011;5279;42.048;24.638;2023-07-13T07:18:48;6.85;;;5.90;;
10463;SDS011;5279;42.048;24.638;2023-07-13T07:21:16;11.20;;;6.78;;
10463;SDS011;5279;42.048;24.638;2023-07-13T07:23:43;7.95;;;5.90;;
10463;SDS011;5279;42.048;24.638;2023-07-13T07:26:10;9.27;;;6.15;;
10463;SDS011;5279;42.048;24.638;2023-07-13T07:28:37;6.85;;;5.85;;
10463;SDS011;5279;42.048;24.638;2023-07-13T07:31:04;7.00;;;6.22;;
10463;SDS011;5279;42.048;24.638;2023-07-13T07:33:31;7.00;;;6.30;;
10463;SDS011;5279;42.048;24.638;2023-07-13T07:35:59;5.97;;;5.38;;
10463;SDS011;5279;42.048;24.638;2023-07-13T07:38:27;8.00;;;6.10;;
10463;SDS011;5279;42.048;24.638;2023-07-13T07:40:54;7.22;;;6.05;;
10463;SDS011;5279;42.048;24.638;2023-07-13T07:43:21;7.75;;;6.22;;
10463;SDS011;5279;42.048;24.638;2023-07-13T07:45:48;6.95;;;5.38;;
10463;SDS011;5279;42.048;24.638;2023-07-13T07:48:15;7.38;;;5.20;;
10463;SDS011;5279;42.048;24.638;2023-07-13T07:50:41;10.07;;;6.25;;
10463;SDS011;5279;42.048;24.638;2023-07-13T07:53:10;9.02;;;6.35;;
10463;SDS011;5279;42.048;24.638;2023-07-13T07:55:39;10.85;;;6.25;;
10463;SDS011;5279;42.048;24.638;2023-07-13T07:58:06;6.70;;;5.80;;
10463;SDS011;5279;42.048;24.638;2023-07-13T08:00:34;6.18;;;5.57;;
10463;SDS011;5279;42.048;24.638;2023-07-13T08:03:00;6.45;;;5.70;;
10463;SDS011;5279;42.048;24.638;2023-07-13T08:05:28;6.53;;;5.93;;
10463;SDS011;5279;42.048;24.638;2023-07-13T08:07:55;6.57;;;5.57;;
10463;SDS011;5279;42.048;24.638;2023-07-13T08:10:22;8.38;;;6.05;;
10463;SDS011;5279;42.048;24.638;2023-07-13T08:12:50;6.25;;;5.30;;
10463;SDS011;5279;42.048;24.638;2023-07-13T08:15:17;5.97;;;5.22;;
10463;SDS011;5279;42.048;24.638;2023-07-13T08:17:46;6.32;;;5.72;;
10463;SDS011;5279;42.048;24.638;2023-07-13T08:20:13;10.07;;;5.63;;
10463;SDS011;5279;42.048;24.638;2023-07-13T08:22:41;8.50;;;5.50;;
10463;SDS011;5279;42.048;24.638;2023-07-13T08:25:08;7.35;;;5.40;;
10463;SDS011;5279;42.048;24.638;2023-07-13T08:27:34;5.50;;;5.00;;
10463;SDS011;5279;42.048;24.638;2023-07-13T08:30:03;7.07;;;5.75;;
10463;SDS011;5279;42.048;24.638;2023-07-13T08:32:33;8.73;;;5.22;;
10463;SDS011;5279;42.048;24.638;2023-07-13T08:35:00;5.85;;;5.22;;
10463;SDS011;5279;42.048;24.638;2023-07-13T08:37:27;5.70;;;5.20;;
10463;SDS011;5279;42.048;24.638;2023-07-13T08:39:54;5.03;;;4.63;;
10463;SDS011;5279;42.048;24.638;2023-07-13T08:42:24;6.53;;;5.30;;
10463;SDS011;5279;42.048;24.638;2023-07-13T08:45:03;5.70;;;5.10;;
10463;SDS011;5279;42.048;24.638;2023-07-13T08:47:39;7.13;;;4.90;;
10463;SDS011;5279;42.048;24.638;2023-07-13T08:50:11;7.13;;;5.32;;
10463;SDS011;5279;42.048;24.638;2023-07-13T08:52:41;8.38;;;5.40;;
10463;SDS011;5279;42.048;24.638;2023-07-13T08:55:12;7.32;;;5.40;;
10463;SDS011;5279;42.048;24.638;2023-07-13T08:57:42;5.75;;;5.00;;
10463;SDS011;5279;42.048;24.638;2023-07-13T09:00:13;5.82;;;4.97;;
10463;SDS011;5279;42.048;24.638;2023-07-13T09:02:42;5.45;;;5.00;;
10463;SDS011;5279;42.048;24.638;2023-07-13T09:05:13;5.47;;;4.90;;
10463;SDS011;5279;42.048;24.638;2023-07-13T09:07:57;11.80;;;5.85;;
10463;SDS011;5279;42.048;24.638;2023-07-13T09:10:58;6.55;;;5.18;;
10463;SDS011;5279;42.048;24.638;2023-07-13T09:13:32;5.78;;;5.13;;
10463;SDS011;5279;42.048;24.638;2023-07-13T09:16:08;6.45;;;5.20;;
10463;SDS011;5279;42.048;24.638;2023-07-13T09:18:37;6.43;;;4.93;;
10463;SDS011;5279;42.048;24.638;2023-07-13T09:21:09;7.68;;;5.22;;
10463;SDS011;5279;42.048;24.638;2023-07-13T09:23:39;6.97;;;5.10;;
10463;SDS011;5279;42.048;24.638;2023-07-13T09:26:09;5.03;;;4.63;;
10463;SDS011;5279;42.048;24.638;2023-07-13T09:28:40;8.25;;;4.93;;
10463;SDS011;5279;42.048;24.638;2023-07-13T09:31:11;4.97;;;4.57;;
10463;SDS011;5279;42.048;24.638;2023-07-13T09:33:41;6.45;;;5.20;;
10463;SDS011;5279;42.048;24.638;2023-07-13T09:36:17;6.05;;;4.82;;
10463;SDS011;5279;42.048;24.638;2023-07-13T09:38:46;6.05;;;4.30;;
10463;SDS011;5279;42.048;24.638;2023-07-13T09:41:19;5.55;;;4.05;;
10463;SDS011;5279;42.048;24.638;2023-07-13T09:44:01;4.95;;;3.97;;
10463;SDS011;5279;42.048;24.638;2023-07-13T09:46:38;6.82;;;4.10;;
10463;SDS011;5279;42.048;24.638;2023-07-13T09:49:07;4.82;;;4.43;;
10463;SDS011;5279;42.048;24.638;2023-07-13T09:51:37;5.35;;;4.55;;
10463;SDS011;5279;42.048;24.638;2023-07-13T09:54:04;8.48;;;4.35;;
10463;SDS011;5279;42.048;24.638;2023-07-13T09:56:31;5.25;;;4.07;;
10463;SDS011;5279;42.048;24.638;2023-07-13T09:58:58;5.03;;;4.53;;
10463;SDS011;5279;42.048;24.638;2023-07-13T10:01:32;4.15;;;3.80;;
10463;SDS011;5279;42.048;24.638;2023-07-13T10:04:02;4.28;;;3.90;;
10463;SDS011;5279;42.048;24.638;2023-07-13T10:06:38;7.40;;;4.45;;
10463;SDS011;5279;42.048;24.638;2023-07-13T10:09:06;4.95;;;4.32;;
10463;SDS011;5279;42.048;24.638;2023-07-13T10:11:34;6.97;;;4.38;;
10463;SDS011;5279;42.048;24.638;2023-07-13T10:14:03;7.38;;;4.22;;
10463;SDS011;5279;42.048;24.638;2023-07-13T10:16:38;6.68;;;4.20;;
10463;SDS011;5279;42.048;24.638;2023-07-13T10:19:12;3.75;;;3.45;;
10463;SDS011;5279;42.048;24.638;2023-07-13T10:21:49;4.20;;;3.80;;
10463;SDS011;5279;42.048;24.638;2023-07-13T10:24:21;6.55;;;4.15;;
10463;SDS011;5279;42.048;24.638;2023-07-13T10:26:52;10.32;;;4.47;;
10463;SDS011;5279;42.048;24.638;2023-07-13T10:29:23;3.83;;;3.47;;
10463;SDS011;5279;42.048;24.638;2023-07-13T10:31:53;5.95;;;3.72;;
10463;SDS011;5279;42.048;24.638;2023-07-13T10:34:23;4.75;;;4.30;;
10463;SDS011;5279;42.048;24.638;2023-07-13T10:36:51;4.72;;;3.88;;
10463;SDS011;5279;42.048;24.638;2023-07-13T10:39:19;9.75;;;4.00;;
10463;SDS011;5279;42.048;24.638;2023-07-13T10:41:48;4.40;;;3.97;;
10463;SDS011;5279;42.048;24.638;2023-07-13T10:44:20;4.63;;;4.10;;
10463;SDS011;5279;42.048;24.638;2023-07-13T10:46:51;4.10;;;3.70;;
10463;SDS011;5279;42.048;24.638;2023-07-13T10:49:20;6.45;;;3.95;;
10463;SDS011;5279;42.048;24.638;2023-07-13T10:51:50;5.65;;;4.00;;
10463;SDS011;5279;42.048;24.638;2023-07-13T10:54:19;4.10;;;3.75;;
10463;SDS011;5279;42.048;24.638;2023-07-13T10:56:52;4.65;;;4.03;;
10463;SDS011;5279;42.048;24.638;2023-07-13T10:59:34;7.28;;;4.10;;
10463;SDS011;5279;42.048;24.638;2023-07-13T11:02:08;4.82;;;3.88;;
10463;SDS011;5279;42.048;24.638;2023-07-13T11:04:41;6.55;;;4.10;;
10463;SDS011;5279;42.048;24.638;2023-07-13T11:07:18;4.50;;;3.95;;
10463;SDS011;5279;42.048;24.638;2023-07-13T11:09:49;5.95;;;4.22;;
10463;SDS011;5279;42.048;24.638;2023-07-13T11:12:27;4.22;;;3.67;;
10463;SDS011;5279;42.048;24.638;2023-07-13T11:15:15;6.18;;;3.83;;
10463;SDS011;5279;42.048;24.638;2023-07-13T11:17:54;5.45;;;3.58;;
10463;SDS011;5279;42.048;24.638;2023-07-13T11:23:15;6.30;;;3.88;;
10463;SDS011;5279;42.048;24.638;2023-07-13T11:25:46;6.10;;;3.90;;
10463;SDS011;5279;42.048;24.638;2023-07-13T11:28:16;5.05;;;3.58;;
10463;SDS011;5279;42.048;24.638;2023-07-13T11:30:48;5.13;;;3.78;;
10463;SDS011;5279;42.048;24.638;2023-07-13T11:33:18;3.90;;;3.47;;
10463;SDS011;5279;42.048;24.638;2023-07-13T11:35:49;4.95;;;3.63;;
10463;SDS011;5279;42.048;24.638;2023-07-13T11:38:32;5.10;;;4.05;;
10463;SDS011;5279;42.048;24.638;2023-07-13T11:41:02;5.55;;;3.85;;
10463;SDS011;5279;42.048;24.638;2023-07-13T11:43:32;7.63;;;3.60;;
10463;SDS011;5279;42.048;24.638;2023-07-13T11:46:11;6.70;;;3.75;;
10463;SDS011;5279;42.048;24.638;2023-07-13T11:48:39;5.55;;;3.80;;
10463;SDS011;5279;42.048;24.638;2023-07-13T11:51:06;6.22;;;4.07;;
10463;SDS011;5279;42.048;24.638;2023-07-13T11:53:45;4.20;;;3.80;;
10463;SDS011;5279;42.048;24.638;2023-07-13T11:56:13;4.20;;;3.38;;
10463;SDS011;5279;42.048;24.638;2023-07-13T11:58:42;5.10;;;3.40;;
10463;SDS011;5279;42.048;24.638;2023-07-13T12:01:10;8.65;;;3.78;;
10463;SDS011;5279;42.048;24.638;2023-07-13T12:03:44;9.90;;;3.58;;
10463;SDS011;5279;42.048;24.638;2023-07-13T12:06:21;5.80;;;3.45;;
10463;SDS011;5279;42.048;24.638;2023-07-13T12:08:56;8.52;;;3.40;;
10463;SDS011;5279;42.048;24.638;2023-07-13T12:11:24;4.22;;;3.80;;
10463;SDS011;5279;42.048;24.638;2023-07-13T12:13:52;4.30;;;3.67;;
10463;SDS011;5279;42.048;24.638;2023-07-13T12:16:25;4.63;;;3.63;;
10463;SDS011;5279;42.048;24.638;2023-07-13T12:18:58;6.50;;;3.70;;
10463;SDS011;5279;42.048;24.638;2023-07-13T12:21:28;5.85;;;3.53;;
10463;SDS011;5279;42.048;24.638;2023-07-13T12:23:59;7.03;;;3.65;;
10463;SDS011;5279;42.048;24.638;2023-07-13T12:26:28;4.40;;;3.28;;
10463;SDS011;5279;42.048;24.638;2023-07-13T12:28:55;3.97;;;3.20;;
10463;SDS011;5279;42.048;24.638;2023-07-13T12:31:29;6.55;;;3.15;;
10463;SDS011;5279;42.048;24.638;2023-07-13T12:34:00;6.65;;;3.53;;
10463;SDS011;5279;42.048;24.638;2023-07-13T12:36:31;6.90;;;3.95;;
10463;SDS011;5279;42.048;24.638;2023-07-13T12:39:02;5.53;;;3.47;;
10463;SDS011;5279;42.048;24.638;2023-07-13T12:41:38;6.70;;;3.58;;
10463;SDS011;5279;42.048;24.638;2023-07-13T12:44:08;5.50;;;3.10;;
10463;SDS011;5279;42.048;24.638;2023-07-13T12:46:38;5.90;;;3.17;;
10463;SDS011;5279;42.048;24.638;2023-07-13T12:49:05;13.40;;;3.30;;
10463;SDS011;5279;42.048;24.638;2023-07-13T12:51:33;12.13;;;3.60;;
10463;SDS011;5279;42.048;24.638;2023-07-13T12:54:11;8.18;;;4.00;;
10463;SDS011;5279;42.048;24.638;2023-07-13T12:56:41;7.32;;;3.28;;
10463;SDS011;5279;42.048;24.638;2023-07-13T12:59:12;6.00;;;3.05;;
10463;SDS011;5279;42.048;24.638;2023-07-13T13:01:44;5.53;;;2.80;;
10463;SDS011;5279;42.048;24.638;2023-07-13T13:04:12;7.45;;;3.55;;
10463;SDS011;5279;42.048;24.638;2023-07-13T13:06:39;5.63;;;3.38;;
10463;SDS011;5279;42.048;24.638;2023-07-13T13:09:11;9.75;;;3.60;;
10463;SDS011;5279;42.048;24.638;2023-07-13T13:11:39;7.53;;;3.25;;
10463;SDS011;5279;42.048;24.638;2023-07-13T13:14:07;7.10;;;3.38;;
10463;SDS011;5279;42.048;24.638;2023-07-13T13:16:34;6.78;;;3.17;;
10463;SDS011;5279;42.048;24.638;2023-07-13T13:19:12;7.55;;;3.33;;
10463;SDS011;5279;42.048;24.638;2023-07-13T13:21:41;5.28;;;2.97;;
10463;SDS011;5279;42.048;24.638;2023-07-13T13:24:12;11.55;;;3.25;;
10463;SDS011;5279;42.048;24.638;2023-07-13T13:26:40;8.63;;;3.00;;
10463;SDS011;5279;42.048;24.638;2023-07-13T13:29:12;7.40;;;3.78;;
10463;SDS011;5279;42.048;24.638;2023-07-13T13:31:40;8.23;;;2.70;;
10463;SDS011;5279;42.048;24.638;2023-07-13T13:34:08;12.23;;;3.30;;
10463;SDS011;5279;42.048;24.638;2023-07-13T13:36:36;11.98;;;3.40;;
10463;SDS011;5279;42.048;24.638;2023-07-13T13:39:05;9.73;;;3.47;;
10463;SDS011;5279;42.048;24.638;2023-07-13T13:41:43;8.60;;;3.63;;
10463;SDS011;5279;42.048;24.638;2023-07-13T13:44:10;8.40;;;3.53;;
10463;SDS011;5279;42.048;24.638;2023-07-13T13:46:37;10.80;;;3.53;;
10463;SDS011;5279;42.048;24.638;2023-07-13T13:49:04;10.48;;;3.50;;
10463;SDS011;5279;42.048;24.638;2023-07-13T13:51:31;6.93;;;2.83;;
10463;SDS011;5279;42.048;24.638;2023-07-13T13:53:58;9.25;;;3.58;;
10463;SDS011;5279;42.048;24.638;2023-07-13T13:56:27;14.15;;;3.72;;
10463;SDS011;5279;42.048;24.638;2023-07-13T13:58:55;10.88;;;3.17;;
10463;SDS011;5279;42.048;24.638;2023-07-13T14:01:22;9.60;;;3.38;;
10463;SDS011;5279;42.048;24.638;2023-07-13T14:03:49;8.38;;;3.10;;
10463;SDS011;5279;42.048;24.638;2023-07-13T14:06:17;8.48;;;2.97;;
10463;SDS011;5279;42.048;24.638;2023-07-13T14:08:47;9.82;;;3.08;;
10463;SDS011;5279;42.048;24.638;2023-07-13T14:11:14;6.10;;;3.38;;
10463;SDS011;5279;42.048;24.638;2023-07-13T14:13:43;10.10;;;3.17;;
10463;SDS011;5279;42.048;24.638;2023-07-13T14:16:15;6.78;;;3.38;;
10463;SDS011;5279;42.048;24.638;2023-07-13T14:18:44;8.25;;;3.20;;
10463;SDS011;5279;42.048;24.638;2023-07-13T14:21:11;9.32;;;3.33;;
10463;SDS011;5279;42.048;24.638;2023-07-13T14:23:39;11.35;;;3.20;;
10463;SDS011;5279;42.048;24.638;2023-07-13T14:26:09;7.53;;;2.78;;
10463;SDS011;5279;42.048;24.638;2023-07-13T14:28:38;9.88;;;3.28;;
10463;SDS011;5279;42.048;24.638;2023-07-13T14:31:09;5.82;;;3.78;;
10463;SDS011;5279;42.048;24.638;2023-07-13T14:33:37;5.38;;;3.47;;
10463;SDS011;5279;42.048;24.638;2023-07-13T14:36:22;12.45;;;3.42;;
10463;SDS011;5279;42.048;24.638;2023-07-13T14:38:53;10.57;;;3.40;;
10463;SDS011;5279;42.048;24.638;2023-07-13T14:41:19;11.00;;;3.88;;
10463;SDS011;5279;42.048;24.638;2023-07-13T14:43:47;6.90;;;3.20;;
10463;SDS011;5279;42.048;24.638;2023-07-13T14:46:26;14.88;;;3.67;;
10463;SDS011;5279;42.048;24.638;2023-07-13T14:48:59;9.05;;;3.30;;
10463;SDS011;5279;42.048;24.638;2023-07-13T14:51:28;6.25;;;3.00;;
10463;SDS011;5279;42.048;24.638;2023-07-13T14:53:56;10.70;;;3.05;;
10463;SDS011;5279;42.048;24.638;2023-07-13T14:56:23;7.82;;;3.25;;
10463;SDS011;5279;42.048;24.638;2023-07-13T14:58:51;5.55;;;3.08;;
10463;SDS011;5279;42.048;24.638;2023-07-13T15:01:18;9.13;;;3.20;;
10463;SDS011;5279;42.048;24.638;2023-07-13T15:03:48;8.45;;;2.92;;
10463;SDS011;5279;42.048;24.638;2023-07-13T15:06:18;9.10;;;3.75;;
10463;SDS011;5279;42.048;24.638;2023-07-13T15:08:46;9.95;;;3.15;;